createdAt,value
2023-03-24T00:02:08.509Z,18.50
2023-03-24T00:04:36.810Z,18.02
2023-03-24T00:07:04.984Z,20.58
2023-03-24T00:09:33.890Z,23.27
2023-03-24T00:12:02.289Z,26.48
2023-03-24T00:14:30.964Z,21.42
2023-03-24T00:16:59.959Z,19.25
2023-03-24T00:19:28.474Z,21.13
2023-03-24T00:21:56.597Z,17.55
2023-03-24T00:24:25.494Z,16.50
2023-03-24T00:26:57.802Z,18.35
2023-03-24T00:29:26.339Z,17.15
2023-03-24T00:31:54.654Z,19.50
2023-03-24T00:34:24.021Z,19.58
2023-03-24T00:36:54.030Z,23.95
2023-03-24T00:39:22.115Z,23.35
2023-03-24T00:41:50.201Z,24.25
2023-03-24T00:44:18.794Z,29.27
2023-03-24T00:46:56.041Z,33.95
2023-03-24T00:49:53.376Z,30.15
2023-03-24T00:52:25.201Z,29.85
2023-03-24T00:54:58.377Z,28.63
2023-03-24T00:59:58.118Z,33.28
2023-03-24T01:02:28.959Z,30.95
2023-03-24T01:05:00.164Z,34.03
2023-03-24T01:07:33.781Z,30.25
2023-03-24T01:10:03.077Z,31.00
2023-03-24T01:12:34.720Z,32.75
2023-03-24T01:15:10.161Z,29.63
2023-03-24T01:17:38.653Z,30.27
2023-03-24T01:20:11.043Z,30.40
2023-03-24T01:22:45.048Z,30.50
2023-03-24T01:25:21.055Z,36.00
2023-03-24T01:27:51.194Z,28.33
2023-03-24T01:30:23.197Z,27.17
2023-03-24T01:32:53.351Z,22.67
2023-03-24T01:35:23.230Z,19.05
2023-03-24T01:37:51.611Z,20.80
2023-03-24T01:40:23.940Z,21.77
2023-03-24T01:42:52.257Z,17.67
2023-03-24T01:45:57.562Z,22.55
2023-03-24T01:49:02.862Z,21.55
2023-03-24T01:51:53.261Z,24.65
2023-03-24T01:54:27.597Z,24.05
2023-03-24T01:57:07.120Z,29.13
2023-03-24T01:59:42.627Z,29.33
2023-03-24T02:02:15.251Z,37.08
2023-03-24T02:04:59.705Z,30.88
2023-03-24T02:07:48.154Z,28.88
2023-03-24T02:10:19.207Z,27.88
2023-03-24T02:12:48.701Z,24.33
2023-03-24T02:15:19.840Z,25.55
2023-03-24T02:18:03.565Z,26.67
2023-03-24T02:20:52.456Z,26.63
2023-03-24T02:23:38.944Z,27.10
2023-03-24T02:26:36.709Z,27.65
2023-03-24T02:29:05.183Z,28.75
2023-03-24T02:31:58.106Z,28.27
2023-03-24T02:34:29.286Z,28.00
2023-03-24T02:37:32.839Z,28.38
2023-03-24T02:40:45.454Z,27.58
2023-03-24T02:43:28.465Z,31.55
2023-03-24T02:45:57.115Z,29.95
2023-03-24T02:48:35.361Z,30.38
2023-03-24T02:51:20.586Z,28.52
2023-03-24T02:53:48.873Z,32.80
2023-03-24T02:57:04.426Z,32.20
2023-03-24T03:00:18.508Z,34.20
2023-03-24T03:06:05.580Z,32.42
2023-03-24T03:08:35.362Z,30.75
2023-03-24T03:11:07.980Z,29.15
2023-03-24T03:13:44.607Z,31.87
2023-03-24T03:16:38.621Z,31.77
2023-03-24T03:19:18.118Z,29.75
2023-03-24T03:21:49.878Z,30.30
2023-03-24T03:24:27.568Z,32.13
2023-03-24T03:27:06.175Z,31.65
2023-03-24T03:29:40.223Z,33.45
2023-03-24T03:32:16.441Z,33.75
2023-03-24T03:34:56.940Z,34.00
2023-03-24T03:37:35.770Z,34.45
2023-03-24T03:40:09.966Z,32.88
2023-03-24T03:42:42.103Z,34.95
2023-03-24T03:45:12.575Z,34.15
2023-03-24T03:47:41.487Z,35.28
2023-03-24T03:50:10.940Z,37.08
2023-03-24T03:52:40.058Z,33.92
2023-03-24T03:55:09.665Z,33.47
2023-03-24T03:57:38.317Z,31.98
2023-03-24T04:00:20.584Z,34.88
2023-03-24T04:03:17.780Z,37.90
2023-03-24T04:05:54.004Z,38.53
2023-03-24T04:08:46.256Z,39.20
2023-03-24T04:11:46.677Z,38.70
2023-03-24T04:14:44.595Z,37.08
2023-03-24T04:17:57.544Z,37.83
2023-03-24T04:21:06.566Z,36.22
2023-03-24T04:23:45.042Z,30.42
2023-03-24T04:26:26.892Z,33.88
2023-03-24T04:29:18.560Z,34.83
2023-03-24T04:32:03.647Z,32.70
2023-03-24T04:34:45.713Z,35.00
2023-03-24T04:37:38.262Z,33.88
2023-03-24T04:40:22.890Z,32.50
2023-03-24T04:42:55.144Z,36.08
2023-03-24T04:45:28.714Z,35.40
2023-03-24T04:48:19.094Z,36.25
2023-03-24T04:51:07.921Z,37.10
2023-03-24T04:53:56.899Z,39.65
2023-03-24T04:56:40.849Z,38.97
2023-03-24T04:59:18.753Z,36.53
2023-03-24T05:01:50.372Z,37.15
2023-03-24T05:04:48.298Z,36.83
2023-03-24T05:07:45.447Z,38.33
2023-03-24T05:10:20.114Z,37.40
2023-03-24T05:12:54.807Z,36.45
2023-03-24T05:15:29.028Z,35.42
2023-03-24T05:18:09.640Z,35.00
2023-03-24T05:20:39.805Z,36.15
2023-03-24T05:23:41.493Z,35.35
2023-03-24T05:26:09.779Z,32.60
2023-03-24T05:28:51.407Z,29.90
2023-03-24T05:31:19.986Z,28.20
2023-03-24T05:33:52.636Z,27.90
2023-03-24T05:36:22.579Z,25.77
2023-03-24T05:38:59.991Z,26.55
2023-03-24T05:41:39.042Z,26.15
2023-03-24T05:44:07.613Z,24.08
2023-03-24T05:46:36.205Z,26.60
2023-03-24T05:49:05.498Z,26.08
2023-03-24T05:51:36.872Z,24.02
2023-03-24T05:54:08.998Z,22.48
2023-03-24T05:56:44.828Z,23.70
2023-03-24T05:59:15.966Z,23.98
2023-03-24T06:02:10.563Z,25.77
2023-03-24T06:04:53.438Z,28.60
2023-03-24T06:07:26.992Z,25.75
2023-03-24T06:10:03.044Z,21.80
2023-03-24T06:12:39.317Z,20.70
2023-03-24T06:15:08.757Z,20.92
2023-03-24T06:17:37.884Z,20.13
2023-03-24T06:20:18.766Z,22.13
2023-03-24T06:23:10.586Z,21.63
2023-03-24T06:26:10.220Z,20.75
2023-03-24T06:28:44.983Z,21.15
2023-03-24T06:31:21.582Z,24.67
2023-03-24T06:33:53.459Z,25.98
2023-03-24T06:36:23.668Z,26.60
2023-03-24T06:38:53.356Z,26.08
2023-03-24T06:41:23.766Z,23.67
2023-03-24T06:43:57.247Z,30.20
2023-03-24T06:46:25.487Z,26.85
2023-03-24T06:48:54.078Z,27.50
2023-03-24T06:51:22.244Z,27.70
2023-03-24T06:53:50.526Z,24.73
2023-03-24T06:56:20.360Z,27.75
2023-03-24T06:58:58.901Z,29.10
2023-03-24T07:01:32.622Z,28.90
2023-03-24T07:04:07.511Z,31.63
2023-03-24T07:06:49.929Z,32.65
2023-03-24T07:09:26.254Z,31.70
2023-03-24T07:11:54.875Z,31.02
2023-03-24T07:14:26.419Z,31.33
2023-03-24T07:16:56.308Z,27.67
2023-03-24T07:19:46.158Z,29.23
2023-03-24T07:22:47.054Z,25.38
2023-03-24T07:25:27.550Z,24.33
2023-03-24T07:28:08.464Z,26.90
2023-03-24T07:30:52.146Z,27.23
2023-03-24T07:33:25.055Z,29.55
2023-03-24T07:35:57.648Z,32.97
2023-03-24T07:38:27.246Z,31.02
2023-03-24T07:41:00.725Z,28.65
2023-03-24T07:43:31.073Z,25.95
2023-03-24T07:46:18.461Z,30.17
2023-03-24T07:48:47.970Z,31.65
2023-03-24T07:51:20.123Z,32.35
2023-03-24T07:53:59.128Z,31.42
2023-03-24T07:56:42.180Z,30.02
2023-03-24T07:59:12.659Z,31.25
2023-03-24T08:01:57.621Z,32.67
2023-03-24T08:04:40.026Z,31.92
2023-03-24T08:07:26.592Z,32.38
2023-03-24T08:09:55.227Z,31.63
2023-03-24T08:12:23.357Z,31.58
2023-03-24T08:14:52.480Z,30.45
2023-03-24T08:17:21.193Z,29.45
2023-03-24T08:19:59.986Z,31.45
2023-03-24T08:22:29.919Z,31.85
2023-03-24T08:24:58.189Z,31.70
2023-03-24T08:27:26.773Z,31.70
2023-03-24T08:29:54.785Z,30.77
2023-03-24T08:32:23.016Z,33.03
2023-03-24T08:34:51.089Z,33.22
2023-03-24T08:37:19.681Z,32.13
2023-03-24T08:43:08.979Z,32.10
2023-03-24T08:45:37.462Z,32.88
2023-03-24T08:48:07.928Z,33.08
2023-03-24T08:50:39.090Z,30.75
2023-03-24T08:53:09.115Z,30.40
2023-03-24T08:55:42.083Z,32.50
2023-03-24T08:58:16.176Z,31.33
2023-03-24T09:00:47.145Z,30.95
2023-03-24T09:03:22.787Z,30.45
2023-03-24T09:05:51.774Z,30.75
2023-03-24T09:08:19.960Z,28.55
2023-03-24T09:10:49.896Z,28.70
2023-03-24T09:13:19.458Z,25.65
2023-03-24T09:15:50.098Z,27.35
2023-03-24T09:18:20.132Z,27.25
2023-03-24T09:20:48.860Z,27.58
2023-03-24T09:23:18.384Z,28.10
2023-03-24T09:25:50.140Z,25.17
2023-03-24T09:28:19.179Z,24.75
2023-03-24T09:30:47.601Z,23.63
2023-03-24T09:33:16.063Z,23.23
2023-03-24T09:35:44.350Z,21.45
2023-03-24T09:38:12.537Z,20.80
2023-03-24T09:40:43.772Z,20.63
2023-03-24T09:43:14.650Z,21.05
2023-03-24T09:45:55.055Z,21.50
2023-03-24T09:48:30.558Z,21.45
2023-03-24T09:51:07.521Z,23.00
2023-03-24T09:53:57.419Z,22.00
2023-03-24T09:56:26.597Z,21.80
2023-03-24T09:59:06.394Z,23.00
2023-03-24T10:01:36.537Z,17.90
2023-03-24T10:04:11.777Z,20.23
2023-03-24T10:06:44.782Z,17.30
2023-03-24T10:09:29.731Z,18.92
2023-03-24T10:12:15.886Z,17.05
2023-03-24T10:14:58.170Z,18.08
2023-03-24T10:17:55.119Z,17.80
2023-03-24T10:20:34.989Z,17.13
2023-03-24T10:23:22.992Z,15.75
2023-03-24T10:26:28.791Z,16.40
2023-03-24T10:29:06.283Z,13.90
2023-03-24T10:31:36.556Z,13.55
2023-03-24T10:34:05.424Z,12.80
2023-03-24T10:36:33.892Z,14.73
2023-03-24T10:39:12.821Z,13.52
2023-03-24T10:41:48.804Z,13.10
2023-03-24T10:44:19.009Z,12.68
2023-03-24T10:46:51.177Z,13.40
2023-03-24T10:49:21.644Z,13.77
2023-03-24T10:51:52.705Z,13.57
2023-03-24T10:54:22.461Z,13.55
2023-03-24T10:56:52.791Z,12.77
2023-03-24T10:59:32.423Z,12.45
2023-03-24T11:02:16.431Z,11.07
2023-03-24T11:05:13.011Z,11.07
2023-03-24T11:07:48.063Z,11.45
2023-03-24T11:10:42.316Z,11.90
2023-03-24T11:13:26.624Z,12.57
2023-03-24T11:16:09.448Z,11.88
2023-03-24T11:18:37.893Z,9.77
2023-03-24T11:21:08.168Z,9.82
2023-03-24T11:23:46.187Z,12.05
2023-03-24T11:26:17.523Z,9.95
2023-03-24T11:29:00.366Z,10.18
2023-03-24T11:31:31.419Z,9.98
2023-03-24T11:34:03.910Z,8.45
2023-03-24T11:36:33.418Z,8.15
2023-03-24T11:39:34.434Z,8.70
2023-03-24T11:42:10.476Z,9.32
2023-03-24T11:44:38.458Z,10.73
2023-03-24T11:47:29.746Z,10.27
2023-03-24T11:50:09.416Z,8.70
2023-03-24T11:53:15.978Z,10.35
2023-03-24T11:55:53.860Z,8.85
2023-03-24T11:58:37.396Z,8.38
2023-03-24T12:01:08.025Z,8.43
2023-03-24T12:03:36.208Z,8.52
2023-03-24T12:06:18.345Z,9.55
2023-03-24T12:09:12.364Z,8.10
2023-03-24T12:11:56.208Z,8.05
2023-03-24T12:14:33.911Z,6.85
2023-03-24T12:17:08.639Z,7.25
2023-03-24T12:19:57.514Z,7.10
2023-03-24T12:22:34.225Z,8.10
2023-03-24T12:25:11.264Z,9.02
2023-03-24T12:27:56.210Z,8.27
2023-03-24T12:30:25.964Z,9.40
2023-03-24T12:33:41.617Z,7.90
2023-03-24T12:36:24.900Z,8.23
2023-03-24T12:41:52.690Z,8.05
2023-03-24T12:44:23.403Z,8.90
2023-03-24T12:47:12.681Z,8.18
2023-03-24T12:50:15.343Z,8.88
2023-03-24T12:53:06.705Z,8.20
2023-03-24T12:55:49.722Z,8.40
2023-03-24T12:58:36.738Z,8.30
2023-03-24T13:01:21.726Z,8.45
2023-03-24T13:04:00.676Z,8.07
2023-03-24T13:06:34.664Z,6.95
2023-03-24T13:09:06.043Z,7.45
2023-03-24T13:12:07.854Z,6.97
2023-03-24T13:14:50.747Z,6.60
2023-03-24T13:17:30.937Z,6.43
2023-03-24T13:20:02.213Z,6.72
2023-03-24T13:22:32.057Z,7.45
2023-03-24T13:25:01.869Z,8.18
2023-03-24T13:27:39.149Z,8.48
2023-03-24T13:30:16.455Z,8.27
2023-03-24T13:32:55.300Z,8.65
2023-03-24T13:35:58.931Z,8.75
2023-03-24T13:38:46.391Z,8.98
2023-03-24T13:41:30.871Z,8.57
2023-03-24T13:44:19.435Z,7.60
2023-03-24T13:47:13.964Z,7.28
2023-03-24T13:49:47.543Z,8.63
2023-03-24T13:52:46.959Z,8.32
2023-03-24T13:55:23.883Z,7.50
2023-03-24T13:58:05.010Z,7.00
2023-03-24T14:00:33.163Z,6.47
2023-03-24T14:03:31.398Z,5.35
2023-03-24T14:06:02.411Z,6.03
2023-03-24T14:08:52.230Z,6.75
2023-03-24T14:11:50.164Z,5.82
2023-03-24T14:14:25.455Z,7.22
2023-03-24T14:17:06.623Z,6.07
2023-03-24T14:20:08.817Z,6.10
2023-03-24T14:22:41.801Z,5.90
2023-03-24T14:27:46.089Z,6.43
2023-03-24T14:30:21.533Z,5.75
2023-03-24T14:33:01.092Z,5.22
2023-03-24T14:35:44.516Z,5.47
2023-03-24T14:38:15.811Z,5.55
2023-03-24T14:40:49.861Z,4.80
2023-03-24T14:43:50.168Z,5.70
2023-03-24T14:46:21.021Z,4.90
2023-03-24T14:49:02.343Z,5.20
2023-03-24T14:51:36.639Z,5.00
2023-03-24T14:54:16.677Z,4.55
2023-03-24T14:56:50.135Z,4.72
2023-03-24T14:59:24.268Z,4.85
2023-03-24T15:02:00.750Z,4.15
2023-03-24T15:04:28.962Z,5.18
2023-03-24T15:06:56.964Z,4.03
2023-03-24T15:09:25.214Z,4.65
2023-03-24T15:11:53.453Z,4.97
2023-03-24T15:14:26.021Z,4.03
2023-03-24T15:17:21.979Z,4.10
2023-03-24T15:19:55.265Z,4.63
2023-03-24T15:22:23.440Z,4.78
2023-03-24T15:24:52.450Z,4.53
2023-03-24T15:27:26.771Z,4.30
2023-03-24T15:29:59.776Z,3.80
2023-03-24T15:32:32.227Z,4.72
2023-03-24T15:35:05.968Z,4.03
2023-03-24T15:37:40.582Z,4.45
2023-03-24T15:40:27.295Z,4.05
2023-03-24T15:43:04.534Z,4.20
2023-03-24T15:45:44.218Z,4.03
2023-03-24T15:48:18.546Z,4.32
2023-03-24T15:51:02.081Z,4.00
2023-03-24T15:53:42.467Z,4.32
2023-03-24T15:56:29.177Z,4.05
2023-03-24T15:59:13.620Z,3.95
2023-03-24T16:01:44.871Z,4.22
2023-03-24T16:04:19.325Z,4.50
2023-03-24T16:06:54.470Z,4.43
2023-03-24T16:09:27.873Z,3.75
2023-03-24T16:11:56.247Z,4.13
2023-03-24T16:14:29.781Z,4.30
2023-03-24T16:17:00.659Z,4.07
2023-03-24T16:19:29.113Z,4.75
2023-03-24T16:21:58.082Z,4.05
2023-03-24T16:24:26.498Z,4.80
2023-03-24T16:26:55.000Z,3.90
2023-03-24T16:29:24.279Z,4.95
2023-03-24T16:31:56.151Z,5.00
2023-03-24T16:34:24.518Z,5.90
2023-03-24T16:36:54.554Z,5.85
2023-03-24T16:39:25.182Z,5.97
2023-03-24T16:41:53.553Z,5.80
2023-03-24T16:44:22.146Z,6.47
2023-03-24T16:46:53.973Z,5.32
2023-03-24T16:49:23.982Z,5.15
2023-03-24T16:51:53.290Z,5.38
2023-03-24T16:54:21.607Z,5.68
2023-03-24T16:56:50.055Z,5.43
2023-03-24T16:59:18.055Z,5.32
2023-03-24T17:01:46.820Z,4.82
2023-03-24T17:04:19.644Z,4.40
2023-03-24T17:09:23.439Z,5.35
2023-03-24T17:11:57.615Z,6.40
2023-03-24T17:14:25.636Z,6.50
2023-03-24T17:16:53.929Z,6.13
2023-03-24T17:19:23.678Z,6.60
2023-03-24T17:22:02.109Z,6.93
2023-03-24T17:24:36.146Z,7.10
2023-03-24T17:27:10.484Z,6.97
2023-03-24T17:29:38.462Z,7.75
2023-03-24T17:32:06.568Z,7.22
2023-03-24T17:34:34.580Z,8.23
2023-03-24T17:37:02.477Z,8.00
2023-03-24T17:39:30.606Z,8.18
2023-03-24T17:42:01.497Z,7.28
2023-03-24T17:44:29.926Z,7.30
2023-03-24T17:46:58.108Z,7.50
2023-03-24T17:49:26.713Z,8.10
2023-03-24T17:51:54.995Z,7.30
2023-03-24T17:54:23.123Z,15.68
2023-03-24T17:56:51.720Z,28.45
2023-03-24T17:59:19.689Z,13.32
2023-03-24T18:01:48.140Z,8.20
2023-03-24T18:04:17.437Z,8.55
2023-03-24T18:06:46.938Z,8.75
2023-03-24T18:09:15.584Z,7.47
2023-03-24T18:11:44.448Z,8.38
2023-03-24T18:14:13.189Z,7.47
2023-03-24T18:16:41.697Z,8.55
2023-03-24T18:19:10.448Z,8.60
2023-03-24T18:21:39.830Z,8.68
2023-03-24T18:24:08.927Z,9.13
2023-03-24T18:26:37.155Z,8.98
2023-03-24T18:35:16.451Z,9.90
2023-03-24T18:37:45.722Z,9.98
2023-03-24T18:41:05.224Z,11.30
2023-03-24T18:43:45.232Z,10.88
2023-03-24T18:46:13.989Z,11.13
2023-03-24T18:48:43.412Z,11.85
2023-03-24T18:51:12.215Z,11.65
2023-03-24T18:53:40.881Z,12.10
2023-03-24T18:56:09.439Z,12.68
2023-03-24T18:58:43.444Z,12.65
2023-03-24T19:01:14.928Z,13.57
2023-03-24T19:03:44.963Z,12.32
2023-03-24T19:06:14.567Z,11.43
2023-03-24T19:08:46.306Z,12.13
2023-03-24T19:11:15.951Z,13.25
2023-03-24T19:13:47.640Z,14.60
2023-03-24T19:16:15.869Z,14.60
2023-03-24T19:18:45.054Z,15.68
2023-03-24T19:21:14.025Z,15.35
2023-03-24T19:23:42.137Z,17.73
2023-03-24T19:26:11.010Z,19.25
2023-03-24T19:28:39.020Z,19.20
2023-03-24T19:31:09.878Z,17.75
2023-03-24T19:33:38.823Z,17.50
2023-03-24T19:36:09.156Z,19.50
2023-03-24T19:38:38.594Z,18.50
2023-03-24T19:41:09.119Z,19.77
2023-03-24T19:43:37.108Z,17.17
2023-03-24T19:46:06.594Z,17.90
2023-03-24T19:48:35.930Z,16.92
2023-03-24T19:51:04.437Z,16.30
2023-03-24T19:53:58.143Z,17.00
2023-03-24T19:56:26.652Z,16.42
2023-03-24T19:58:54.665Z,17.17
2023-03-24T20:01:24.033Z,16.55
2023-03-24T20:03:52.285Z,17.00
2023-03-24T20:06:20.819Z,16.00
2023-03-24T20:08:48.848Z,16.50
2023-03-24T20:11:17.467Z,15.00
2023-03-24T20:13:45.926Z,14.25
2023-03-24T20:16:14.143Z,14.73
2023-03-24T20:18:42.424Z,14.38
2023-03-24T20:21:12.312Z,13.18
2023-03-24T20:23:40.412Z,14.65
2023-03-24T20:26:08.864Z,14.43
2023-03-24T20:28:36.906Z,14.68
2023-03-24T20:31:04.992Z,15.65
2023-03-24T20:33:33.312Z,15.55
2023-03-24T20:36:02.342Z,16.83
2023-03-24T20:38:31.083Z,17.38
2023-03-24T20:41:04.091Z,16.13
2023-03-24T20:43:37.403Z,18.23
2023-03-24T20:46:07.941Z,19.17
2023-03-24T20:48:36.714Z,21.48
2023-03-24T20:51:05.385Z,24.70
2023-03-24T20:53:35.043Z,30.55
2023-03-24T20:56:06.725Z,32.65
2023-03-24T20:58:38.023Z,33.17
2023-03-24T21:01:11.808Z,35.90
2023-03-24T21:03:41.014Z,34.72
2023-03-24T21:06:11.003Z,32.22
2023-03-24T21:08:43.880Z,32.88
2023-03-24T21:11:14.188Z,31.88
2023-03-24T21:13:42.338Z,32.38
2023-03-24T21:16:12.279Z,27.10
2023-03-24T21:18:44.047Z,24.02
2023-03-24T21:21:13.553Z,31.63
2023-03-24T21:23:42.728Z,34.55
2023-03-24T21:26:15.308Z,32.35
2023-03-24T21:28:44.992Z,30.67
2023-03-24T21:31:29.367Z,31.58
2023-03-24T21:33:58.507Z,33.38
2023-03-24T21:36:30.995Z,35.35
2023-03-24T21:38:59.819Z,34.72
2023-03-24T21:41:29.001Z,32.03
2023-03-24T21:44:00.773Z,30.67
2023-03-24T21:46:32.264Z,28.77
2023-03-24T21:49:01.130Z,27.25
2023-03-24T21:51:34.474Z,23.17
2023-03-24T21:54:06.835Z,28.02
2023-03-24T21:56:38.073Z,29.38
2023-03-24T21:59:06.786Z,29.90
2023-03-24T22:01:36.247Z,25.33
2023-03-24T22:04:06.046Z,26.52
2023-03-24T22:06:38.107Z,28.88
2023-03-24T22:09:07.920Z,30.88
2023-03-24T22:11:42.761Z,35.85
2023-03-24T22:14:12.726Z,34.78
2023-03-24T22:16:40.819Z,25.52
2023-03-24T22:19:09.721Z,22.33
2023-03-24T22:21:39.530Z,22.33
2023-03-24T22:24:08.311Z,21.38
2023-03-24T22:26:36.733Z,20.42
2023-03-24T22:29:04.806Z,19.98
2023-03-24T22:31:32.947Z,21.92
2023-03-24T22:34:01.567Z,21.77
2023-03-24T22:36:30.456Z,21.23
2023-03-24T22:38:58.423Z,23.00
2023-03-24T22:41:26.455Z,21.50
2023-03-24T22:43:54.559Z,21.70
2023-03-24T22:46:24.621Z,22.58
2023-03-24T22:48:52.902Z,22.95
2023-03-24T22:51:21.633Z,23.45
2023-03-24T22:53:50.417Z,24.27
2023-03-24T22:56:19.234Z,27.70
2023-03-24T22:58:47.253Z,28.70
2023-03-24T23:01:15.268Z,28.85
2023-03-24T23:03:44.076Z,25.92
2023-03-24T23:06:13.378Z,23.90
2023-03-24T23:08:42.732Z,21.30
2023-03-24T23:11:12.101Z,18.10
2023-03-24T23:13:40.749Z,18.58
2023-03-24T23:16:09.593Z,18.98
2023-03-24T23:18:38.420Z,19.98
2023-03-24T23:21:12.046Z,18.58
2023-03-24T23:23:41.471Z,19.88
2023-03-24T23:26:25.140Z,23.77
2023-03-24T23:28:55.403Z,22.92
2023-03-24T23:31:28.194Z,22.98
2023-03-24T23:33:58.054Z,20.95
2023-03-24T23:36:26.694Z,19.80
2023-03-24T23:38:54.987Z,20.10
2023-03-24T23:41:24.626Z,18.77
2023-03-24T23:43:53.900Z,17.95
2023-03-24T23:46:24.075Z,17.55
2023-03-24T23:48:52.539Z,15.73
2023-03-24T23:51:21.377Z,16.88
2023-03-24T23:53:49.448Z,17.52
2023-03-24T23:56:21.818Z,16.02
2023-03-24T23:58:49.883Z,15.63
